createdAt,value
2023-01-09T00:00:56.618Z,25.85
2023-01-09T00:03:23.612Z,26.42
2023-01-09T00:05:50.557Z,26.55
2023-01-09T00:08:18.527Z,26.27
2023-01-09T00:10:45.519Z,27.80
2023-01-09T00:13:15.480Z,27.17
2023-01-09T00:15:42.507Z,27.10
2023-01-09T00:18:09.577Z,27.50
2023-01-09T00:20:37.054Z,27.00
2023-01-09T00:23:04.295Z,29.55
2023-01-09T00:25:31.235Z,27.48
2023-01-09T00:27:58.177Z,28.50
2023-01-09T00:30:25.979Z,27.55
2023-01-09T00:32:54.675Z,27.27
2023-01-09T00:35:23.638Z,27.33
2023-01-09T00:37:50.676Z,28.17
2023-01-09T00:40:18.140Z,27.85
2023-01-09T00:42:49.626Z,27.45
2023-01-09T00:45:28.867Z,27.80
2023-01-09T00:48:09.897Z,27.50
2023-01-09T00:50:37.868Z,28.58
2023-01-09T00:53:13.262Z,25.58
2023-01-09T00:55:40.618Z,26.75
2023-01-09T00:58:09.118Z,28.17
2023-01-09T01:00:36.157Z,27.42
2023-01-09T01:03:03.428Z,26.95
2023-01-09T01:05:48.798Z,26.67
2023-01-09T01:08:18.761Z,25.08
2023-01-09T01:10:47.310Z,27.95
2023-01-09T01:13:14.982Z,25.27
2023-01-09T01:15:43.774Z,27.17
2023-01-09T01:18:13.080Z,26.10
2023-01-09T01:20:44.670Z,28.85
2023-01-09T01:23:12.078Z,25.77
2023-01-09T01:25:40.791Z,27.13
2023-01-09T01:28:08.805Z,27.48
2023-01-09T01:30:40.496Z,26.05
2023-01-09T01:33:08.938Z,27.50
2023-01-09T01:35:36.273Z,26.40
2023-01-09T01:38:03.382Z,25.35
2023-01-09T01:40:30.692Z,27.02
2023-01-09T01:42:58.820Z,26.50
2023-01-09T01:45:30.178Z,26.58
2023-01-09T01:48:11.039Z,25.88
2023-01-09T01:50:37.896Z,26.95
2023-01-09T01:53:14.152Z,26.75
2023-01-09T01:56:06.746Z,28.00
2023-01-09T01:58:38.547Z,28.08
2023-01-09T02:01:05.936Z,26.83
2023-01-09T02:03:33.831Z,28.42
2023-01-09T02:06:00.833Z,25.63
2023-01-09T02:08:27.762Z,27.40
2023-01-09T02:10:55.227Z,26.08
2023-01-09T02:13:22.392Z,25.70
2023-01-09T02:16:24.794Z,26.92
2023-01-09T02:19:16.717Z,27.73
2023-01-09T02:22:05.350Z,28.33
2023-01-09T02:24:42.223Z,27.30
2023-01-09T02:27:47.815Z,28.00
2023-01-09T02:33:18.121Z,24.63
2023-01-09T02:35:48.024Z,29.05
2023-01-09T02:38:36.647Z,26.67
2023-01-09T02:41:38.778Z,28.38
2023-01-09T02:44:26.724Z,28.33
2023-01-09T02:47:29.375Z,28.52
2023-01-09T02:50:05.015Z,28.48
2023-01-09T02:52:45.448Z,26.60
2023-01-09T02:55:23.226Z,26.13
2023-01-09T02:58:16.295Z,28.33
2023-01-09T03:01:01.875Z,29.08
2023-01-09T03:03:36.955Z,29.38
2023-01-09T03:06:06.580Z,30.23
2023-01-09T03:08:57.650Z,30.52
2023-01-09T03:11:29.019Z,27.85
2023-01-09T03:13:59.998Z,28.90
2023-01-09T03:16:35.454Z,31.15
2023-01-09T03:19:07.085Z,31.23
2023-01-09T03:21:34.855Z,29.15
2023-01-09T03:24:03.058Z,30.05
2023-01-09T03:26:31.137Z,29.35
2023-01-09T03:28:59.369Z,30.88
2023-01-09T03:31:26.367Z,28.45
2023-01-09T03:33:53.576Z,30.58
2023-01-09T03:36:21.945Z,28.77
2023-01-09T03:38:49.252Z,31.58
2023-01-09T03:41:16.286Z,28.48
2023-01-09T03:43:43.309Z,29.83
2023-01-09T03:46:10.370Z,29.52
2023-01-09T03:48:37.485Z,28.23
2023-01-09T03:51:04.445Z,29.95
2023-01-09T03:53:31.392Z,30.15
2023-01-09T03:55:59.041Z,30.27
2023-01-09T03:58:26.914Z,29.63
2023-01-09T04:00:59.987Z,31.33
2023-01-09T04:03:27.188Z,29.17
2023-01-09T04:05:54.195Z,29.27
2023-01-09T04:08:21.799Z,29.67
2023-01-09T04:10:50.930Z,29.27
2023-01-09T04:13:18.348Z,29.27
2023-01-09T04:15:45.424Z,30.10
2023-01-09T04:18:12.621Z,30.20
2023-01-09T04:20:39.509Z,31.10
2023-01-09T04:23:06.550Z,30.48
2023-01-09T04:25:34.100Z,29.48
2023-01-09T04:28:01.128Z,30.65
2023-01-09T04:30:28.036Z,32.75
2023-01-09T04:32:55.000Z,30.75
2023-01-09T04:35:22.015Z,30.00
2023-01-09T04:37:49.044Z,29.88
2023-01-09T04:40:16.014Z,32.47
2023-01-09T04:42:43.286Z,29.92
2023-01-09T04:45:11.879Z,30.65
2023-01-09T04:47:38.878Z,31.05
2023-01-09T04:50:06.383Z,32.15
2023-01-09T04:52:33.385Z,30.85
2023-01-09T04:55:00.340Z,30.35
2023-01-09T04:57:27.302Z,32.70
2023-01-09T04:59:54.474Z,30.52
2023-01-09T05:02:21.534Z,32.08
2023-01-09T05:04:48.699Z,30.92
2023-01-09T05:07:15.687Z,31.23
2023-01-09T05:09:43.629Z,30.92
2023-01-09T05:12:10.948Z,31.83
2023-01-09T05:14:37.894Z,33.25
2023-01-09T05:17:04.813Z,35.17
2023-01-09T05:19:31.795Z,32.78
2023-01-09T05:21:58.791Z,31.10
2023-01-09T05:24:25.830Z,31.98
2023-01-09T05:26:52.781Z,30.52
2023-01-09T05:29:19.750Z,31.75
2023-01-09T05:31:46.703Z,31.00
2023-01-09T05:34:13.795Z,29.92
2023-01-09T05:36:40.795Z,33.83
2023-01-09T05:39:07.865Z,31.13
2023-01-09T05:41:34.783Z,31.30
2023-01-09T05:44:02.000Z,30.92
2023-01-09T05:46:28.903Z,32.72
2023-01-09T05:48:55.851Z,32.97
2023-01-09T05:51:22.842Z,32.72
2023-01-09T05:53:50.237Z,29.98
2023-01-09T05:56:17.344Z,30.15
2023-01-09T05:58:44.366Z,32.42
2023-01-09T06:01:11.376Z,30.95
2023-01-09T06:03:38.277Z,29.95
2023-01-09T06:06:05.511Z,33.72
2023-01-09T06:08:32.440Z,31.45
2023-01-09T06:10:59.356Z,31.48
2023-01-09T06:13:26.306Z,32.47
2023-01-09T06:15:53.300Z,33.47
2023-01-09T06:18:20.256Z,33.72
2023-01-09T06:20:47.175Z,32.05
2023-01-09T06:23:14.356Z,31.60
2023-01-09T06:25:41.607Z,31.35
2023-01-09T06:28:08.613Z,34.10
2023-01-09T06:30:35.588Z,34.13
2023-01-09T06:33:02.534Z,31.92
2023-01-09T06:35:29.525Z,31.70
2023-01-09T06:37:58.581Z,32.28
2023-01-09T06:40:25.715Z,30.52
2023-01-09T06:42:52.741Z,30.77
2023-01-09T06:45:19.801Z,30.10
2023-01-09T06:47:46.770Z,29.42
2023-01-09T06:50:13.682Z,31.15
2023-01-09T06:52:40.712Z,33.83
2023-01-09T06:55:08.821Z,31.77
2023-01-09T06:57:35.766Z,30.23
2023-01-09T07:00:03.761Z,30.85
2023-01-09T07:02:30.757Z,31.65
2023-01-09T07:04:57.672Z,31.88
2023-01-09T07:07:24.687Z,31.30
2023-01-09T07:09:51.805Z,32.00
2023-01-09T07:12:18.961Z,33.25
2023-01-09T07:14:45.895Z,30.35
2023-01-09T07:17:13.772Z,31.92
2023-01-09T07:19:40.967Z,29.92
2023-01-09T07:22:08.510Z,30.15
2023-01-09T07:24:35.570Z,30.52
2023-01-09T07:27:02.930Z,30.67
2023-01-09T07:29:30.544Z,33.55
2023-01-09T07:31:57.804Z,30.33
2023-01-09T07:34:24.748Z,29.52
2023-01-09T07:36:51.928Z,30.05
2023-01-09T07:39:18.915Z,31.17
2023-01-09T07:41:46.262Z,31.48
2023-01-09T07:44:13.761Z,32.53
2023-01-09T07:46:40.854Z,32.75
2023-01-09T07:49:08.367Z,31.48
2023-01-09T07:51:35.341Z,33.35
2023-01-09T07:54:02.221Z,33.28
2023-01-09T07:56:29.122Z,35.00
2023-01-09T07:58:56.059Z,34.33
2023-01-09T08:01:23.180Z,30.80
2023-01-09T08:03:50.179Z,32.05
2023-01-09T08:06:17.144Z,31.35
2023-01-09T08:08:44.084Z,33.40
2023-01-09T08:11:11.099Z,31.67
2023-01-09T08:13:38.023Z,32.10
2023-01-09T08:16:05.582Z,33.97
2023-01-09T08:18:32.702Z,33.15
2023-01-09T08:20:59.821Z,32.50
2023-01-09T08:23:26.878Z,31.42
2023-01-09T08:25:53.956Z,31.85
2023-01-09T08:28:20.999Z,32.17
2023-01-09T08:30:48.084Z,33.85
2023-01-09T08:33:15.475Z,31.83
2023-01-09T08:35:44.357Z,34.58
2023-01-09T08:38:11.599Z,35.83
2023-01-09T08:40:38.622Z,35.70
2023-01-09T08:43:24.517Z,32.97
2023-01-09T08:46:10.032Z,32.67
2023-01-09T08:48:37.000Z,35.88
2023-01-09T08:51:03.989Z,34.00
2023-01-09T08:53:31.627Z,33.78
2023-01-09T08:55:59.314Z,35.55
2023-01-09T08:58:26.364Z,33.10
2023-01-09T09:00:53.407Z,35.70
2023-01-09T09:03:21.789Z,32.47
2023-01-09T09:05:48.759Z,33.00
2023-01-09T09:08:16.583Z,33.85
2023-01-09T09:10:43.596Z,33.90
2023-01-09T09:13:10.509Z,33.28
2023-01-09T09:15:39.133Z,35.15
2023-01-09T09:18:07.239Z,34.53
2023-01-09T09:20:38.956Z,32.17
2023-01-09T09:23:08.299Z,32.30
2023-01-09T09:25:38.530Z,31.00
2023-01-09T09:28:06.523Z,32.42
2023-01-09T09:30:33.905Z,33.30
2023-01-09T09:33:04.585Z,31.23
2023-01-09T09:35:33.850Z,32.83
2023-01-09T09:38:05.235Z,33.47
2023-01-09T09:41:03.268Z,33.00
2023-01-09T09:43:51.774Z,31.38
2023-01-09T09:46:40.299Z,33.00
2023-01-09T09:49:29.430Z,32.80
2023-01-09T09:52:15.813Z,31.55
2023-01-09T09:54:49.735Z,31.20
2023-01-09T09:57:22.022Z,32.67
2023-01-09T09:59:51.603Z,31.70
2023-01-09T10:02:26.457Z,33.05
2023-01-09T10:05:11.912Z,34.13
2023-01-09T10:07:46.716Z,32.65
2023-01-09T10:10:39.790Z,33.42
2023-01-09T10:13:31.833Z,32.15
2023-01-09T10:16:18.918Z,31.30
2023-01-09T10:19:07.680Z,31.65
2023-01-09T10:21:43.501Z,31.85
2023-01-09T10:24:22.528Z,32.63
2023-01-09T10:26:52.402Z,33.55
2023-01-09T10:29:41.522Z,34.17
2023-01-09T10:32:50.896Z,31.90
2023-01-09T10:35:55.108Z,30.45
2023-01-09T10:38:29.189Z,30.63
2023-01-09T10:41:19.380Z,32.55
2023-01-09T10:44:27.588Z,34.63
2023-01-09T10:46:56.606Z,31.77
2023-01-09T10:49:25.612Z,33.03
2023-01-09T10:52:05.624Z,33.60
2023-01-09T10:54:32.819Z,32.72
2023-01-09T10:57:12.942Z,32.63
2023-01-09T10:59:41.669Z,34.25
2023-01-09T11:02:38.063Z,32.17
2023-01-09T11:05:05.249Z,32.83
2023-01-09T11:07:42.393Z,33.47
2023-01-09T11:10:12.215Z,34.85
2023-01-09T11:12:40.390Z,32.60
2023-01-09T11:15:16.184Z,31.23
2023-01-09T11:17:43.916Z,28.48
2023-01-09T11:20:18.547Z,30.63
2023-01-09T11:22:51.246Z,30.98
2023-01-09T11:25:20.125Z,33.75
2023-01-09T11:28:02.470Z,33.28
2023-01-09T11:30:30.991Z,30.60
2023-01-09T11:32:59.216Z,31.50
2023-01-09T11:35:34.128Z,32.53
2023-01-09T11:38:16.973Z,33.28
2023-01-09T11:40:50.770Z,31.80
2023-01-09T11:43:32.956Z,32.63
2023-01-09T11:46:07.056Z,31.77
2023-01-09T11:48:54.967Z,32.72
2023-01-09T11:51:24.784Z,33.83
2023-01-09T11:53:58.957Z,32.03
2023-01-09T11:56:26.367Z,32.33
2023-01-09T11:58:53.540Z,32.10
2023-01-09T12:02:06.380Z,31.73
2023-01-09T12:04:50.944Z,33.03
2023-01-09T12:07:30.261Z,30.65
2023-01-09T12:10:23.661Z,30.23
2023-01-09T12:13:24.174Z,32.58
2023-01-09T12:16:09.895Z,29.95
2023-01-09T12:18:51.788Z,32.40
2023-01-09T12:21:21.536Z,31.58
2023-01-09T12:24:18.626Z,31.23
2023-01-09T12:27:00.523Z,29.38
2023-01-09T12:29:30.503Z,31.08
2023-01-09T12:32:07.778Z,32.53
2023-01-09T12:34:56.500Z,32.75
2023-01-09T12:37:48.132Z,31.63
2023-01-09T12:40:27.070Z,33.17
2023-01-09T12:43:12.204Z,34.35
2023-01-09T12:45:42.432Z,31.90
2023-01-09T12:48:36.226Z,33.42
2023-01-09T12:51:33.880Z,34.75
2023-01-09T12:54:14.025Z,34.38
2023-01-09T12:56:49.852Z,31.10
2023-01-09T12:59:44.301Z,35.08
2023-01-09T13:02:24.418Z,32.50
2023-01-09T13:05:02.857Z,31.35
2023-01-09T13:07:40.311Z,33.30
2023-01-09T13:10:35.405Z,34.35
2023-01-09T13:13:11.018Z,30.42
2023-01-09T13:15:58.341Z,31.30
2023-01-09T13:18:36.136Z,32.05
2023-01-09T13:21:03.353Z,34.80
2023-01-09T13:23:51.909Z,34.25
2023-01-09T13:26:24.211Z,36.45
2023-01-09T13:29:23.230Z,35.00
2023-01-09T13:32:27.590Z,37.05
2023-01-09T13:34:57.425Z,37.65
2023-01-09T13:37:32.893Z,39.85
2023-01-09T13:40:02.646Z,38.92
2023-01-09T13:42:36.077Z,39.58
2023-01-09T13:45:24.616Z,42.50
2023-01-09T13:48:17.833Z,40.50
2023-01-09T13:50:47.269Z,42.20
2023-01-09T13:53:20.383Z,42.47
2023-01-09T13:55:59.879Z,42.78
2023-01-09T13:58:28.930Z,39.72
2023-01-09T14:01:01.839Z,42.75
2023-01-09T14:03:33.976Z,42.67
2023-01-09T14:06:00.990Z,44.85
2023-01-09T14:08:30.247Z,45.00
2023-01-09T14:11:03.403Z,45.75
2023-01-09T14:13:39.264Z,44.92
2023-01-09T14:16:09.520Z,44.72
2023-01-09T14:18:39.934Z,45.45
2023-01-09T14:21:13.489Z,45.17
2023-01-09T14:24:02.931Z,46.58
2023-01-09T14:26:46.092Z,47.15
2023-01-09T14:29:31.453Z,48.92
2023-01-09T14:32:23.558Z,49.05
2023-01-09T14:34:57.454Z,47.78
2023-01-09T14:37:26.149Z,49.67
2023-01-09T14:39:53.331Z,48.92
2023-01-09T14:42:25.756Z,46.70
2023-01-09T14:44:55.868Z,46.78
2023-01-09T14:47:39.082Z,48.72
2023-01-09T14:50:27.964Z,46.10
2023-01-09T14:53:16.321Z,47.72
2023-01-09T14:55:57.911Z,45.38
2023-01-09T14:58:28.014Z,44.60
2023-01-09T15:01:15.823Z,47.88
2023-01-09T15:03:49.503Z,49.67
2023-01-09T15:06:28.200Z,53.17
2023-01-09T15:09:23.891Z,48.35
2023-01-09T15:11:53.335Z,49.85
2023-01-09T15:14:36.857Z,48.47
2023-01-09T15:17:04.351Z,47.15
2023-01-09T15:19:32.318Z,49.28
2023-01-09T15:22:07.572Z,51.65
2023-01-09T15:24:34.907Z,54.20
2023-01-09T15:27:15.453Z,47.42
2023-01-09T15:29:42.390Z,48.17
2023-01-09T15:32:24.195Z,48.83
2023-01-09T15:34:51.391Z,46.15
2023-01-09T15:37:33.412Z,50.85
2023-01-09T15:40:02.838Z,50.22
2023-01-09T15:42:52.105Z,51.00
2023-01-09T15:45:32.499Z,55.03
2023-01-09T15:48:19.350Z,53.03
2023-01-09T15:50:48.483Z,50.90
2023-01-09T15:53:21.424Z,58.10
2023-01-09T15:56:07.052Z,58.17
2023-01-09T15:58:39.592Z,52.50
2023-01-09T16:01:31.031Z,49.97
2023-01-09T16:04:05.347Z,48.78
2023-01-09T16:06:46.901Z,46.53
2023-01-09T16:09:30.379Z,44.08
2023-01-09T16:12:00.590Z,46.30
2023-01-09T16:14:45.715Z,43.95
2023-01-09T16:17:17.899Z,47.88
2023-01-09T16:19:58.156Z,45.42
2023-01-09T16:22:26.762Z,47.08
2023-01-09T16:25:16.287Z,47.00
2023-01-09T16:27:43.207Z,47.22
2023-01-09T16:30:28.464Z,47.72
2023-01-09T16:32:55.562Z,44.25
2023-01-09T16:35:26.212Z,47.53
2023-01-09T16:37:54.364Z,43.92
2023-01-09T16:40:26.417Z,44.72
2023-01-09T16:43:08.624Z,46.42
2023-01-09T16:45:40.852Z,45.63
2023-01-09T16:48:16.192Z,45.10
2023-01-09T16:50:44.641Z,43.90
2023-01-09T16:53:24.417Z,43.72
2023-01-09T16:55:53.920Z,46.45
2023-01-09T16:58:32.331Z,42.33
2023-01-09T17:00:59.649Z,44.83
2023-01-09T17:03:26.904Z,42.05
2023-01-09T17:05:56.557Z,42.90
2023-01-09T17:08:26.798Z,45.38
2023-01-09T17:10:55.623Z,44.67
2023-01-09T17:13:23.325Z,40.65
2023-01-09T17:15:51.097Z,43.95
2023-01-09T17:18:20.902Z,45.38
2023-01-09T17:20:50.492Z,44.25
2023-01-09T17:23:17.926Z,44.38
2023-01-09T17:26:03.346Z,43.67
2023-01-09T17:28:33.370Z,43.35
2023-01-09T17:31:06.912Z,44.15
2023-01-09T17:33:34.193Z,46.60
2023-01-09T17:36:07.755Z,44.33
2023-01-09T17:38:34.731Z,47.73
2023-01-09T17:41:01.695Z,46.10
2023-01-09T17:43:28.716Z,48.17
2023-01-09T17:45:56.726Z,45.97
2023-01-09T17:48:23.712Z,47.15
2023-01-09T17:50:50.930Z,48.70
2023-01-09T17:53:19.937Z,47.58
2023-01-09T17:55:47.135Z,46.47
2023-01-09T17:58:34.466Z,48.53
2023-01-09T18:01:01.553Z,48.05
2023-01-09T18:03:33.482Z,46.92
2023-01-09T18:06:00.964Z,50.83
2023-01-09T18:08:28.040Z,49.58
2023-01-09T18:10:55.084Z,48.13
2023-01-09T18:13:22.335Z,51.30
2023-01-09T18:15:49.299Z,48.97
2023-01-09T18:18:16.412Z,51.10
2023-01-09T18:20:44.753Z,49.47
2023-01-09T18:23:12.785Z,49.13
2023-01-09T18:25:41.610Z,50.85
2023-01-09T18:28:09.592Z,48.60
2023-01-09T18:30:37.324Z,48.20
2023-01-09T18:33:04.411Z,49.92
2023-01-09T18:39:19.390Z,48.78
2023-01-09T18:41:46.438Z,50.65
2023-01-09T18:44:13.594Z,50.22
2023-01-09T18:46:42.262Z,48.65
2023-01-09T18:49:10.303Z,48.47
2023-01-09T18:51:37.341Z,46.65
2023-01-09T18:54:06.048Z,48.72
2023-01-09T18:56:33.093Z,47.90
2023-01-09T18:59:00.377Z,47.42
2023-01-09T19:01:30.983Z,48.83
2023-01-09T19:03:59.559Z,47.13
2023-01-09T19:06:28.068Z,47.45
2023-01-09T19:08:55.244Z,48.13
2023-01-09T19:11:22.240Z,46.95
2023-01-09T19:13:50.869Z,49.70
2023-01-09T19:16:18.237Z,49.00
2023-01-09T19:18:45.636Z,47.80
2023-01-09T19:21:23.849Z,47.55
2023-01-09T19:23:50.933Z,48.20
2023-01-09T19:26:26.151Z,47.17
2023-01-09T19:28:58.102Z,46.63
2023-01-09T19:31:28.372Z,43.25
2023-01-09T19:33:56.511Z,46.90
2023-01-09T19:36:23.690Z,45.90
2023-01-09T19:38:56.967Z,44.97
2023-01-09T19:41:24.011Z,44.17
2023-01-09T19:43:51.091Z,44.38
2023-01-09T19:46:20.922Z,42.63
2023-01-09T19:48:48.688Z,41.47
2023-01-09T19:51:18.097Z,43.10
2023-01-09T19:53:50.101Z,42.38
2023-01-09T19:56:19.662Z,41.25
2023-01-09T19:58:55.221Z,41.63
2023-01-09T20:01:25.655Z,40.13
2023-01-09T20:03:53.678Z,41.78
2023-01-09T20:06:24.460Z,39.97
2023-01-09T20:08:56.921Z,39.97
2023-01-09T20:11:26.151Z,39.33
2023-01-09T20:13:53.482Z,38.67
2023-01-09T20:16:23.456Z,37.65
2023-01-09T20:18:50.477Z,36.72
2023-01-09T20:23:51.203Z,33.97
2023-01-09T20:26:18.364Z,37.72
2023-01-09T20:28:46.182Z,36.55
2023-01-09T20:31:16.422Z,45.53
2023-01-09T20:33:44.187Z,35.28
2023-01-09T20:36:11.291Z,35.22
2023-01-09T20:38:39.545Z,33.85
2023-01-09T20:41:24.226Z,32.53
2023-01-09T20:44:00.232Z,31.65
2023-01-09T20:46:30.062Z,30.77
2023-01-09T20:49:03.593Z,31.45
2023-01-09T20:51:31.337Z,35.50
2023-01-09T20:53:58.815Z,30.58
2023-01-09T20:56:27.163Z,30.25
2023-01-09T20:58:54.697Z,32.35
2023-01-09T21:01:25.293Z,29.52
2023-01-09T21:03:53.728Z,31.30
2023-01-09T21:06:22.845Z,29.95
2023-01-09T21:08:51.053Z,31.40
2023-01-09T21:11:19.694Z,27.40
2023-01-09T21:13:47.178Z,28.10
2023-01-09T21:16:21.521Z,27.10
2023-01-09T21:21:22.320Z,26.05
2023-01-09T21:23:54.543Z,26.38
2023-01-09T21:26:26.118Z,25.63
2023-01-09T21:28:55.455Z,26.58
2023-01-09T21:31:33.599Z,29.55
2023-01-09T21:34:05.570Z,26.58
2023-01-09T21:36:33.080Z,25.52
2023-01-09T21:39:00.603Z,24.88
2023-01-09T21:41:45.985Z,31.30
2023-01-09T21:44:34.241Z,27.35
2023-01-09T21:47:02.400Z,26.25
2023-01-09T21:49:31.466Z,30.50
2023-01-09T21:51:58.757Z,26.55
2023-01-09T21:54:25.890Z,33.03
2023-01-09T21:56:53.361Z,28.90
2023-01-09T21:59:20.600Z,29.17
2023-01-09T22:01:49.468Z,26.13
2023-01-09T22:04:18.086Z,39.92
2023-01-09T22:06:45.376Z,29.50
2023-01-09T22:09:12.632Z,30.02
2023-01-09T22:11:40.701Z,29.02
2023-01-09T22:14:10.910Z,32.53
2023-01-09T22:16:38.078Z,30.08
2023-01-09T22:19:05.034Z,26.27
2023-01-09T22:21:32.103Z,24.40
2023-01-09T22:24:01.669Z,28.95
2023-01-09T22:26:30.083Z,28.13
2023-01-09T22:28:57.496Z,24.80
2023-01-09T22:31:26.058Z,30.23
2023-01-09T22:33:54.665Z,25.38
2023-01-09T22:36:21.616Z,26.50
2023-01-09T22:38:48.704Z,24.40
2023-01-09T22:41:15.831Z,25.63
2023-01-09T22:43:42.825Z,22.92
2023-01-09T22:46:11.723Z,22.10
2023-01-09T22:48:40.139Z,29.67
2023-01-09T22:51:11.744Z,23.23
2023-01-09T22:53:38.906Z,24.30
2023-01-09T22:56:10.100Z,25.98
2023-01-09T22:58:37.175Z,23.83
2023-01-09T23:01:05.921Z,27.45
2023-01-09T23:03:33.357Z,22.25
2023-01-09T23:06:05.935Z,19.85
2023-01-09T23:08:34.398Z,24.95
2023-01-09T23:11:02.680Z,20.98
2023-01-09T23:13:29.753Z,18.30
2023-01-09T23:15:57.012Z,26.35
2023-01-09T23:18:24.191Z,20.60
2023-01-09T23:21:02.141Z,29.00
2023-01-09T23:23:31.179Z,19.58
2023-01-09T23:26:00.581Z,22.58
2023-01-09T23:28:28.193Z,24.33
2023-01-09T23:30:55.242Z,36.95
2023-01-09T23:33:22.237Z,20.55
2023-01-09T23:35:49.393Z,24.13
2023-01-09T23:38:16.498Z,18.88
2023-01-09T23:40:43.640Z,18.65
2023-01-09T23:43:12.200Z,18.10
2023-01-09T23:45:44.936Z,17.77
2023-01-09T23:48:14.617Z,17.73
2023-01-09T23:50:52.100Z,22.48
2023-01-09T23:53:20.355Z,17.42
2023-01-09T23:55:48.192Z,18.05
2023-01-09T23:58:15.361Z,14.85
